createdAt,value
2019-05-20T00:00:31.537Z,13.20
2019-05-20T00:03:00.481Z,13.30
2019-05-20T00:05:29.536Z,13.40
2019-05-20T00:07:58.538Z,13.40
2019-05-20T00:10:27.546Z,13.30
2019-05-20T00:12:56.525Z,13.30
2019-05-20T00:15:25.525Z,13.30
2019-05-20T00:17:54.482Z,13.40
2019-05-20T00:20:23.442Z,13.50
2019-05-20T00:22:52.298Z,13.50
2019-05-20T00:25:21.169Z,13.50
2019-05-20T00:27:50.125Z,13.60
2019-05-20T00:30:19.257Z,13.60
2019-05-20T00:32:48.264Z,13.70
2019-05-20T00:35:17.280Z,13.70
2019-05-20T00:37:46.281Z,13.70
2019-05-20T00:40:15.728Z,13.50
2019-05-20T00:42:44.657Z,13.50
2019-05-20T00:45:15.285Z,13.50
2019-05-20T00:47:44.161Z,13.50
2019-05-20T00:50:13.205Z,13.40
2019-05-20T00:52:42.132Z,13.40
2019-05-20T00:55:23.501Z,13.40
2019-05-20T00:57:52.821Z,13.50
2019-05-20T01:00:22.133Z,13.50
2019-05-20T01:02:57.017Z,13.60
2019-05-20T01:05:21.963Z,13.60
2019-05-20T01:07:51.033Z,13.70
2019-05-20T01:10:20.180Z,13.70
2019-05-20T01:12:49.125Z,13.60
2019-05-20T01:15:19.562Z,13.60
2019-05-20T01:17:48.569Z,13.60
2019-05-20T01:20:18.098Z,13.60
2019-05-20T01:22:47.058Z,13.60
2019-05-20T01:25:16.161Z,13.60
2019-05-20T01:27:44.994Z,13.60
2019-05-20T01:30:15.043Z,13.70
2019-05-20T01:32:44.010Z,13.70
2019-05-20T01:35:13.145Z,13.70
2019-05-20T01:37:42.152Z,13.60
2019-05-20T01:40:11.340Z,13.60
2019-05-20T01:42:40.332Z,13.70
2019-05-20T01:45:10.854Z,13.70
2019-05-20T01:47:39.790Z,13.80
2019-05-20T01:50:09.505Z,13.90
2019-05-20T01:52:38.538Z,13.90
2019-05-20T01:55:08.738Z,13.90
2019-05-20T01:57:37.800Z,13.80
2019-05-20T02:00:08.298Z,13.80
2019-05-20T02:02:37.396Z,13.80
2019-05-20T02:05:07.574Z,13.80
2019-05-20T02:07:36.577Z,13.70
2019-05-20T02:10:06.553Z,13.70
2019-05-20T02:12:35.492Z,13.60
2019-05-20T02:15:10.866Z,13.60
2019-05-20T02:17:40.389Z,13.60
2019-05-20T02:20:09.955Z,13.70
2019-05-20T02:22:39.006Z,13.70
2019-05-20T02:25:08.025Z,13.80
2019-05-20T02:27:37.207Z,13.70
2019-05-20T02:30:06.396Z,13.70
2019-05-20T02:32:35.420Z,13.70
2019-05-20T02:35:04.902Z,13.70
2019-05-20T02:37:33.867Z,13.70
2019-05-20T02:40:02.856Z,13.80
2019-05-20T02:42:31.867Z,13.80
2019-05-20T02:45:00.879Z,13.80
2019-05-20T02:47:29.848Z,13.70
2019-05-20T02:49:58.855Z,13.70
2019-05-20T02:52:27.724Z,13.80
2019-05-20T02:54:56.727Z,13.80
2019-05-20T02:57:25.654Z,13.90
2019-05-20T02:59:54.639Z,13.90
2019-05-20T03:02:23.712Z,13.90
2019-05-20T03:04:52.714Z,13.90
2019-05-20T03:07:21.663Z,14.00
2019-05-20T03:09:50.687Z,13.90
2019-05-20T03:12:19.648Z,13.90
2019-05-20T03:14:48.666Z,13.90
2019-05-20T03:17:17.884Z,13.90
2019-05-20T03:19:46.850Z,13.90
2019-05-20T03:22:15.783Z,13.90
2019-05-20T03:24:44.811Z,13.90
2019-05-20T03:27:13.854Z,13.90
2019-05-20T03:29:42.913Z,13.80
2019-05-20T03:32:11.865Z,13.90
2019-05-20T03:34:48.710Z,13.80
2019-05-20T03:37:11.638Z,13.80
2019-05-20T03:39:40.660Z,13.80
2019-05-20T03:42:09.873Z,13.90
2019-05-20T03:44:43.537Z,13.90
2019-05-20T03:47:12.451Z,13.90
2019-05-20T03:49:41.467Z,13.90
2019-05-20T03:52:10.412Z,13.90
2019-05-20T03:54:39.329Z,13.90
2019-05-20T03:57:08.266Z,13.90
2019-05-20T03:59:37.209Z,13.90
2019-05-20T04:02:06.171Z,13.90
2019-05-20T04:04:35.118Z,13.90
2019-05-20T04:07:04.050Z,14.00
2019-05-20T04:09:33.072Z,14.00
2019-05-20T04:12:02.039Z,14.00
2019-05-20T04:14:31.126Z,14.00
2019-05-20T04:17:00.158Z,14.00
2019-05-20T04:19:29.052Z,14.00
2019-05-20T04:21:57.981Z,14.00
2019-05-20T04:24:26.986Z,14.00
2019-05-20T04:26:59.510Z,14.00
2019-05-20T04:29:28.537Z,14.00
2019-05-20T04:31:57.545Z,13.90
2019-05-20T04:34:26.567Z,14.00
2019-05-20T04:36:55.566Z,14.00
2019-05-20T04:39:24.544Z,14.10
2019-05-20T04:41:53.581Z,14.10
2019-05-20T04:44:22.539Z,14.20
2019-05-20T04:46:51.856Z,14.20
2019-05-20T04:49:20.862Z,14.20
2019-05-20T04:51:49.720Z,14.20
2019-05-20T04:54:18.665Z,14.30
2019-05-20T04:56:47.560Z,14.30
2019-05-20T04:59:16.455Z,14.30
2019-05-20T05:01:45.321Z,14.30
2019-05-20T05:04:14.267Z,14.30
2019-05-20T05:06:43.345Z,14.30
2019-05-20T05:09:15.576Z,14.40
2019-05-20T05:11:43.298Z,14.30
2019-05-20T05:14:12.735Z,14.20
2019-05-20T05:16:41.835Z,14.20
2019-05-20T05:19:10.878Z,14.10
2019-05-20T05:21:40.031Z,14.00
2019-05-20T05:24:09.045Z,14.00
2019-05-20T05:26:38.187Z,13.90
2019-05-20T05:29:07.255Z,13.90
2019-05-20T05:31:36.394Z,13.70
2019-05-20T05:34:05.396Z,13.60
2019-05-20T05:36:34.436Z,13.60
2019-05-20T05:39:05.667Z,13.60
2019-05-20T05:41:34.612Z,13.70
2019-05-20T05:44:03.662Z,13.80
2019-05-20T05:46:32.830Z,13.90
2019-05-20T05:49:01.858Z,13.90
2019-05-20T05:51:30.887Z,13.90
2019-05-20T05:53:59.939Z,13.90
2019-05-20T05:56:28.936Z,13.90
2019-05-20T05:58:57.854Z,13.90
2019-05-20T06:01:27.083Z,14.00
2019-05-20T06:03:56.017Z,14.10
2019-05-20T06:06:25.000Z,14.10
2019-05-20T06:08:54.157Z,14.10
2019-05-20T06:11:23.179Z,14.10
2019-05-20T06:13:52.131Z,14.20
2019-05-20T06:16:35.323Z,14.20
2019-05-20T06:18:51.848Z,14.10
2019-05-20T06:21:20.944Z,14.10
2019-05-20T06:23:49.914Z,14.20
2019-05-20T06:26:18.828Z,14.20
2019-05-20T06:28:47.861Z,14.20
2019-05-20T06:31:16.901Z,14.20
2019-05-20T06:33:45.931Z,14.30
2019-05-20T06:36:26.621Z,14.30
2019-05-20T06:39:04.674Z,14.30
2019-05-20T06:41:33.762Z,14.30
2019-05-20T06:44:02.698Z,14.30
2019-05-20T06:46:31.555Z,14.30
2019-05-20T06:49:00.563Z,14.40
2019-05-20T06:51:29.619Z,14.50
2019-05-20T06:53:58.552Z,14.50
2019-05-20T06:56:27.558Z,14.50
2019-05-20T06:58:56.409Z,14.50
2019-05-20T07:01:25.354Z,14.50
2019-05-20T07:03:54.374Z,14.60
2019-05-20T07:06:23.251Z,14.70
2019-05-20T07:08:52.247Z,14.80
2019-05-20T07:11:21.273Z,14.90
2019-05-20T07:13:50.294Z,14.80
2019-05-20T07:16:19.324Z,14.90
2019-05-20T07:18:48.268Z,14.80
2019-05-20T07:21:17.322Z,14.70
2019-05-20T07:23:46.350Z,14.70
2019-05-20T07:26:15.451Z,14.80
2019-05-20T07:28:44.420Z,14.90
2019-05-20T07:31:13.362Z,14.90
2019-05-20T07:33:42.308Z,14.90
2019-05-20T07:36:11.346Z,14.80
2019-05-20T07:38:40.397Z,14.90
2019-05-20T07:41:09.438Z,14.80
2019-05-20T07:43:38.441Z,14.70
2019-05-20T07:46:08.949Z,14.70
2019-05-20T07:48:38.849Z,14.80
2019-05-20T07:51:09.679Z,14.80
2019-05-20T07:53:39.633Z,14.80
2019-05-20T07:56:12.997Z,15.00
2019-05-20T07:58:46.742Z,15.00
2019-05-20T08:01:16.023Z,14.80
2019-05-20T08:03:45.055Z,14.70
2019-05-20T08:06:14.538Z,14.70
2019-05-20T08:08:43.601Z,14.80
2019-05-20T08:11:12.681Z,14.80
2019-05-20T08:13:41.717Z,14.90
2019-05-20T08:16:10.769Z,14.90
2019-05-20T08:18:39.793Z,15.00
2019-05-20T08:21:09.115Z,14.90
2019-05-20T08:23:38.162Z,14.90
2019-05-20T08:26:07.335Z,14.80
2019-05-20T08:28:36.467Z,14.90
2019-05-20T08:31:05.941Z,14.90
2019-05-20T08:33:35.308Z,14.90
2019-05-20T08:36:04.782Z,14.70
2019-05-20T08:38:33.818Z,14.70
2019-05-20T08:41:02.839Z,14.60
2019-05-20T08:43:31.717Z,14.70
2019-05-20T08:46:00.724Z,14.80
2019-05-20T08:48:29.612Z,14.70
2019-05-20T08:50:58.632Z,14.80
2019-05-20T08:53:27.729Z,14.80
2019-05-20T08:55:56.865Z,14.80
2019-05-20T08:58:26.251Z,14.90
2019-05-20T09:00:55.168Z,14.80
2019-05-20T09:03:24.217Z,14.80
2019-05-20T09:05:53.145Z,14.90
2019-05-20T09:08:22.114Z,14.80
2019-05-20T09:10:51.048Z,14.80
2019-05-20T09:13:19.992Z,14.80
2019-05-20T09:15:49.006Z,14.70
2019-05-20T09:18:18.009Z,14.80
2019-05-20T09:20:46.946Z,14.80
2019-05-20T09:23:16.202Z,14.80
2019-05-20T09:25:48.085Z,14.90
2019-05-20T09:28:17.134Z,15.10
2019-05-20T09:30:46.602Z,15.20
2019-05-20T09:33:16.146Z,15.20
2019-05-20T09:35:45.314Z,15.20
2019-05-20T09:38:20.102Z,15.20
2019-05-20T09:40:47.327Z,15.30
2019-05-20T09:43:17.450Z,15.20
2019-05-20T09:45:46.565Z,15.20
2019-05-20T09:48:15.944Z,15.10
2019-05-20T09:50:44.954Z,15.10
2019-05-20T09:53:13.953Z,15.00
2019-05-20T09:55:42.996Z,15.10
2019-05-20T09:58:12.062Z,15.00
2019-05-20T10:00:41.183Z,14.70
2019-05-20T10:03:10.198Z,14.80
2019-05-20T10:05:39.239Z,14.80
2019-05-20T10:08:08.248Z,14.90
2019-05-20T10:10:37.689Z,14.80
2019-05-20T10:13:07.346Z,14.80
2019-05-20T10:15:37.640Z,14.70
2019-05-20T10:18:06.895Z,14.70
2019-05-20T10:20:35.987Z,14.70
2019-05-20T10:23:04.989Z,14.80
2019-05-20T10:25:34.022Z,15.10
2019-05-20T10:28:03.005Z,15.10
2019-05-20T10:30:32.017Z,15.10
2019-05-20T10:33:01.043Z,15.20
2019-05-20T10:35:30.163Z,15.10
2019-05-20T10:37:59.169Z,15.20
2019-05-20T10:40:28.119Z,15.20
2019-05-20T10:42:57.000Z,15.20
2019-05-20T10:45:26.078Z,15.50
2019-05-20T10:47:55.030Z,15.60
2019-05-20T10:50:24.087Z,15.60
2019-05-20T10:52:53.091Z,15.50
2019-05-20T10:55:22.222Z,15.50
2019-05-20T10:57:51.424Z,15.30
2019-05-20T11:00:21.042Z,15.30
2019-05-20T11:02:50.052Z,15.20
2019-05-20T11:05:19.908Z,15.20
2019-05-20T11:07:49.090Z,15.30
2019-05-20T11:10:19.008Z,15.40
2019-05-20T11:12:48.087Z,15.40
2019-05-20T11:15:17.641Z,15.50
2019-05-20T11:17:46.664Z,15.60
2019-05-20T11:20:15.786Z,15.70
2019-05-20T11:22:44.851Z,15.70
2019-05-20T11:25:13.862Z,15.80
2019-05-20T11:27:42.800Z,16.00
2019-05-20T11:30:13.438Z,16.10
2019-05-20T11:32:42.996Z,16.10
2019-05-20T11:35:12.164Z,16.30
2019-05-20T11:37:41.168Z,16.40
2019-05-20T11:40:11.903Z,16.20
2019-05-20T11:42:41.667Z,16.30
2019-05-20T11:45:12.515Z,16.30
2019-05-20T11:47:41.788Z,16.40
2019-05-20T11:50:12.726Z,16.50
2019-05-20T11:52:41.618Z,16.30
2019-05-20T11:55:11.101Z,16.20
2019-05-20T11:57:40.137Z,16.00
2019-05-20T12:00:10.420Z,16.10
2019-05-20T12:02:39.373Z,16.20
2019-05-20T12:05:10.167Z,16.30
2019-05-20T12:07:39.112Z,16.40
2019-05-20T12:10:09.691Z,16.50
2019-05-20T12:12:38.742Z,16.50
2019-05-20T12:15:08.781Z,16.50
2019-05-20T12:17:37.748Z,16.40
2019-05-20T12:20:08.283Z,16.50
2019-05-20T12:22:37.830Z,16.50
2019-05-20T12:25:07.847Z,16.70
2019-05-20T12:27:36.814Z,16.80
2019-05-20T12:30:07.693Z,16.90
2019-05-20T12:32:36.748Z,16.80
2019-05-20T12:35:06.254Z,16.90
2019-05-20T12:37:35.111Z,17.20
2019-05-20T12:40:07.614Z,17.20
2019-05-20T12:42:35.287Z,17.20
2019-05-20T12:45:05.169Z,17.30
2019-05-20T12:47:34.126Z,17.60
2019-05-20T12:50:03.340Z,17.60
2019-05-20T12:52:32.422Z,17.70
2019-05-20T12:55:07.826Z,17.70
2019-05-20T12:57:31.964Z,17.90
2019-05-20T13:00:00.930Z,18.10
2019-05-20T13:02:29.993Z,18.30
2019-05-20T13:04:59.070Z,18.30
2019-05-20T13:07:28.027Z,18.40
2019-05-20T13:09:57.350Z,18.60
2019-05-20T13:12:26.421Z,18.50
2019-05-20T13:14:55.354Z,18.60
2019-05-20T13:17:24.492Z,18.50
2019-05-20T13:19:54.004Z,18.60
2019-05-20T13:22:22.991Z,18.60
2019-05-20T13:24:52.023Z,18.60
2019-05-20T13:27:21.080Z,18.50
2019-05-20T13:29:50.078Z,18.40
2019-05-20T13:32:19.099Z,18.40
2019-05-20T13:34:48.162Z,18.20
2019-05-20T13:37:17.445Z,18.30
2019-05-20T13:39:46.493Z,18.50
2019-05-20T13:42:15.584Z,18.60
2019-05-20T13:44:44.651Z,18.60
2019-05-20T13:47:13.724Z,18.40
2019-05-20T13:49:42.742Z,18.30
2019-05-20T13:52:11.757Z,18.20
2019-05-20T13:54:40.780Z,18.10
2019-05-20T13:57:12.921Z,18.10
2019-05-20T13:59:40.524Z,18.00
2019-05-20T14:02:09.554Z,18.00
2019-05-20T14:04:38.855Z,18.00
2019-05-20T14:07:07.921Z,17.90
2019-05-20T14:09:36.962Z,17.60
2019-05-20T14:12:05.991Z,17.60
2019-05-20T14:14:35.085Z,17.70
2019-05-20T14:17:04.077Z,17.50
2019-05-20T14:19:33.173Z,17.30
2019-05-20T14:22:02.423Z,17.00
2019-05-20T14:24:31.683Z,17.10
2019-05-20T14:27:00.702Z,16.90
2019-05-20T14:29:29.747Z,16.70
2019-05-20T14:31:58.613Z,16.50
2019-05-20T14:34:27.658Z,16.50
2019-05-20T14:36:57.013Z,16.60
2019-05-20T14:39:26.125Z,16.60
2019-05-20T14:41:55.102Z,16.80
2019-05-20T14:44:24.149Z,16.80
2019-05-20T14:46:53.389Z,16.70
2019-05-20T14:49:22.585Z,16.70
2019-05-20T14:51:51.880Z,16.70
2019-05-20T14:54:21.345Z,16.70
2019-05-20T14:56:50.662Z,16.50
2019-05-20T14:59:19.714Z,16.30
2019-05-20T15:01:48.621Z,16.00
2019-05-20T15:04:17.605Z,15.80
2019-05-20T15:06:46.677Z,15.60
2019-05-20T15:09:15.799Z,15.60
2019-05-20T15:11:44.829Z,15.70
2019-05-20T15:14:13.841Z,15.70
2019-05-20T15:16:42.882Z,15.90
2019-05-20T15:19:11.823Z,15.90
2019-05-20T15:21:40.882Z,16.00
2019-05-20T15:24:09.954Z,15.90
2019-05-20T15:26:39.047Z,15.80
2019-05-20T15:29:07.984Z,15.70
2019-05-20T15:31:37.031Z,15.80
2019-05-20T15:34:06.058Z,15.70
2019-05-20T15:36:35.091Z,15.60
2019-05-20T15:39:05.650Z,15.50
2019-05-20T15:41:34.680Z,15.50
2019-05-20T15:44:03.730Z,15.50
2019-05-20T15:46:32.611Z,15.40
2019-05-20T15:49:01.650Z,15.50
2019-05-20T15:51:30.679Z,15.50
2019-05-20T15:54:00.496Z,15.50
2019-05-20T15:56:29.454Z,15.50
2019-05-20T15:58:58.489Z,15.50
2019-05-20T16:01:27.550Z,15.50
2019-05-20T16:03:56.547Z,15.50
2019-05-20T16:06:25.563Z,15.50
2019-05-20T16:08:54.606Z,15.60
2019-05-20T16:11:23.837Z,15.50
2019-05-20T16:13:52.968Z,15.60
2019-05-20T16:16:21.947Z,15.50
2019-05-20T16:18:50.935Z,15.40
2019-05-20T16:21:19.914Z,15.20
2019-05-20T16:23:48.964Z,15.20
2019-05-20T16:26:18.125Z,15.20
2019-05-20T16:28:47.129Z,15.30
2019-05-20T16:31:16.173Z,15.30
2019-05-20T16:33:45.226Z,15.40
2019-05-20T16:36:14.431Z,15.40
2019-05-20T16:38:43.631Z,15.50
2019-05-20T16:41:12.661Z,15.40
2019-05-20T16:43:41.709Z,15.50
2019-05-20T16:46:10.820Z,15.30
2019-05-20T16:48:39.841Z,15.40
2019-05-20T16:51:08.918Z,15.30
2019-05-20T16:53:37.815Z,15.40
2019-05-20T16:56:06.955Z,15.40
2019-05-20T16:58:36.011Z,15.50
2019-05-20T17:01:06.423Z,15.50
2019-05-20T17:03:35.524Z,15.60
2019-05-20T17:06:05.125Z,15.60
2019-05-20T17:08:34.307Z,15.50
2019-05-20T17:11:03.458Z,15.40
2019-05-20T17:13:32.562Z,15.40
2019-05-20T17:16:01.623Z,15.30
2019-05-20T17:18:30.820Z,15.30
2019-05-20T17:20:59.889Z,15.10
2019-05-20T17:23:28.878Z,14.90
2019-05-20T17:25:58.123Z,14.90
2019-05-20T17:28:27.450Z,14.80
2019-05-20T17:30:56.860Z,14.90
2019-05-20T17:33:25.920Z,14.80
2019-05-20T17:35:54.936Z,14.70
2019-05-20T17:38:23.955Z,14.70
2019-05-20T17:40:53.014Z,14.60
2019-05-20T17:43:22.141Z,14.50
2019-05-20T17:45:51.164Z,14.60
2019-05-20T17:48:20.245Z,14.50
2019-05-20T17:50:49.426Z,14.50
2019-05-20T17:53:18.714Z,14.50
2019-05-20T17:55:49.471Z,14.40
2019-05-20T17:58:20.397Z,14.30
2019-05-20T18:00:49.682Z,14.30
2019-05-20T18:03:18.782Z,14.30
2019-05-20T18:05:47.921Z,14.30
2019-05-20T18:08:16.976Z,14.40
2019-05-20T18:10:49.163Z,14.40
2019-05-20T18:13:18.070Z,14.40
2019-05-20T18:15:47.208Z,14.30
2019-05-20T18:18:16.548Z,14.20
2019-05-20T18:20:45.547Z,14.20
2019-05-20T18:23:14.566Z,14.20
2019-05-20T18:25:43.556Z,14.20
2019-05-20T18:28:12.540Z,14.20
2019-05-20T18:30:41.740Z,14.20
2019-05-20T18:33:10.658Z,14.20
2019-05-20T18:35:39.720Z,14.20
2019-05-20T18:38:08.918Z,14.10
2019-05-20T18:40:37.841Z,14.00
2019-05-20T18:43:07.012Z,13.90
2019-05-20T18:45:36.087Z,13.90
2019-05-20T18:48:05.200Z,13.80
2019-05-20T18:50:34.431Z,13.70
2019-05-20T18:53:03.571Z,13.60
2019-05-20T18:55:34.870Z,13.60
2019-05-20T18:58:03.411Z,13.60
2019-05-20T19:00:32.495Z,13.60
2019-05-20T19:03:01.611Z,13.50
2019-05-20T19:05:30.730Z,13.50
2019-05-20T19:07:59.890Z,13.40
2019-05-20T19:10:29.575Z,13.40
2019-05-20T19:12:58.590Z,13.30
2019-05-20T19:15:27.631Z,13.30
2019-05-20T19:17:56.598Z,13.30
2019-05-20T19:20:25.799Z,13.20
2019-05-20T19:22:54.896Z,13.30
2019-05-20T19:25:36.987Z,13.20
2019-05-20T19:27:54.789Z,13.30
2019-05-20T19:30:24.294Z,13.30
2019-05-20T19:32:53.260Z,13.20
2019-05-20T19:35:22.369Z,13.10
2019-05-20T19:37:51.375Z,13.10
2019-05-20T19:40:20.435Z,13.10
2019-05-20T19:42:49.708Z,13.10
2019-05-20T19:45:19.038Z,13.10
2019-05-20T19:47:48.077Z,12.90
2019-05-20T19:50:17.146Z,12.90
2019-05-20T19:52:46.169Z,12.90
2019-05-20T19:55:18.624Z,12.90
2019-05-20T19:57:46.027Z,12.80
2019-05-20T20:00:16.528Z,13.00
2019-05-20T20:02:45.690Z,12.90
2019-05-20T20:05:14.735Z,12.90
2019-05-20T20:07:43.783Z,12.90
2019-05-20T20:10:14.130Z,13.00
2019-05-20T20:12:43.194Z,13.00
2019-05-20T20:15:17.735Z,13.00
2019-05-20T20:17:46.835Z,13.10
2019-05-20T20:20:16.264Z,13.10
2019-05-20T20:22:45.329Z,13.00
2019-05-20T20:25:15.047Z,13.00
2019-05-20T20:27:43.991Z,12.90
2019-05-20T20:30:13.542Z,12.90
2019-05-20T20:32:42.605Z,12.90
2019-05-20T20:35:11.590Z,12.80
2019-05-20T20:37:40.661Z,12.70
2019-05-20T20:40:10.589Z,12.60
2019-05-20T20:42:39.794Z,12.50
2019-05-20T20:45:09.047Z,12.50
2019-05-20T20:47:42.026Z,12.50
2019-05-20T20:50:09.934Z,12.50
2019-05-20T20:52:39.020Z,12.50
2019-05-20T20:55:08.565Z,12.40
2019-05-20T20:57:37.664Z,12.40
2019-05-20T21:00:07.581Z,12.50
2019-05-20T21:02:36.724Z,12.50
2019-05-20T21:05:05.830Z,12.50
2019-05-20T21:07:34.854Z,12.50
2019-05-20T21:10:04.401Z,12.50
2019-05-20T21:12:33.442Z,12.50
2019-05-20T21:15:02.548Z,12.50
2019-05-20T21:17:31.994Z,12.60
2019-05-20T21:20:01.019Z,12.50
2019-05-20T21:22:30.047Z,12.50
2019-05-20T21:24:59.030Z,12.50
2019-05-20T21:27:28.145Z,12.50
2019-05-20T21:29:57.174Z,12.50
2019-05-20T21:32:26.265Z,12.50
2019-05-20T21:34:55.479Z,12.50
2019-05-20T21:37:24.520Z,12.60
2019-05-20T21:39:53.464Z,12.50
2019-05-20T21:42:22.511Z,12.50
2019-05-20T21:44:51.530Z,12.50
2019-05-20T21:47:20.493Z,12.50
2019-05-20T21:49:49.440Z,12.60
2019-05-20T21:52:18.693Z,12.50
2019-05-20T21:54:47.577Z,12.60
2019-05-20T21:57:16.620Z,12.50
2019-05-20T21:59:45.625Z,12.50
2019-05-20T22:02:14.582Z,12.40
2019-05-20T22:04:43.866Z,12.40
2019-05-20T22:07:12.809Z,12.40
2019-05-20T22:09:41.840Z,12.50
2019-05-20T22:12:10.711Z,12.50
2019-05-20T22:14:39.670Z,12.50
2019-05-20T22:17:08.751Z,12.50
2019-05-20T22:19:37.686Z,12.50
2019-05-20T22:22:22.773Z,12.60
2019-05-20T22:24:51.915Z,12.60
2019-05-20T22:27:20.957Z,12.60
2019-05-20T22:29:49.954Z,12.60
2019-05-20T22:32:18.913Z,12.60
2019-05-20T22:34:53.467Z,12.60
2019-05-20T22:37:18.600Z,12.50
2019-05-20T22:39:47.528Z,12.50
2019-05-20T22:42:17.350Z,12.50
2019-05-20T22:44:46.302Z,12.50
2019-05-20T22:47:15.524Z,12.60
2019-05-20T22:49:44.481Z,12.50
2019-05-20T22:52:13.555Z,12.50
2019-05-20T22:54:42.529Z,12.50
2019-05-20T22:57:11.495Z,12.50
2019-05-20T22:59:40.500Z,12.50
2019-05-20T23:02:09.516Z,12.50
2019-05-20T23:04:38.533Z,12.50
2019-05-20T23:07:07.475Z,12.50
2019-05-20T23:09:36.414Z,12.50
2019-05-20T23:12:05.343Z,12.50
2019-05-20T23:14:34.383Z,12.50
2019-05-20T23:17:03.243Z,12.50
2019-05-20T23:19:32.572Z,12.50
2019-05-20T23:22:01.599Z,12.60
2019-05-20T23:24:30.635Z,12.50
2019-05-20T23:26:59.573Z,12.50
2019-05-20T23:29:28.462Z,12.50
2019-05-20T23:31:57.482Z,12.50
2019-05-20T23:34:26.438Z,12.50
2019-05-20T23:36:55.330Z,12.50
2019-05-20T23:39:24.546Z,12.50
2019-05-20T23:41:53.490Z,12.60
2019-05-20T23:44:22.369Z,12.60
2019-05-20T23:46:51.399Z,12.60
2019-05-20T23:49:20.347Z,12.60
2019-05-20T23:51:49.270Z,12.70
2019-05-20T23:54:18.309Z,12.60
2019-05-20T23:56:47.314Z,12.60
2019-05-20T23:59:16.540Z,12.60
